ETNL/RLG METAR and TAF weather

Enter ICAO airport designator
Station Type Date Time Source
ETNL METAR 2020/06/03 21:20 UTC NOAA

ETNL 032120Z 08009KT 9999 FEW100 BKN210 13/06 Q1002 BLU+


Station Type Date Time Source
ETNL Decoded METAR 2020/06/03 21:20 UTC NOAA

Laage, Germany (ETNL) 53-55N 012-17E 46M
Jun 03, 2020 - 05:20 PM EDT / 2020.06.03 2120 UTC
Wind: from the E (080 degrees) at 10 MPH (9 KT):0
Visibility: greater than 7 mile(s):0
Sky conditions: mostly cloudy
Temperature: 55 F (13 C)
Dew Point: 42 F (6 C)
Relative Humidity: 62%
Pressure (altimeter): 29.59 in. Hg (1002 hPa)
ob: ETNL 032120Z 08009KT 9999 FEW100 BKN210 13/06 Q1002 BLU+
cycle: 21

Station Type Date Time Source
ETNL TAF 2019/06/10 05:34 UTC NOAA

TAF ETNL 100400Z 1005/1018 06008KT 9999 NSW BKN100
TEMPO 1005/1018 07012KT 6000 -RA BKN050 OVC100 PROB30 1015/1018 VRB15G30KT 3000 TSRA BKN030CB BY ETGL

Example: see airport list